Airfield :







YOU CAN JOIN US ON...

 
LOGIN :

Register | Disclaimer

   EN    FR    IT 

 









Legend :    VFR   Marginal VFR   IFR   Intensive IFR   Very Intensive IFR
Visi :
Ceiling :
>= 8 km
>= 3000ft
5 to 8 km
1000 to 3000 ft
1500m to 5 km
500 to 1000 ft
800 to 1500m
200 to 500 ft
< 800m
< 200 ft
Symbols :   Thunderstorms  Fog  Heavy snow  Heavy precipitations  Wind > 20 kt







- Airport Elevation : 192 ft
- IATA code : BGR


KBGR - Bangor International

CURRENT METAR :
  • 180553Z 01004KT 10SM SCT110 M08/M16 A3007 RMK AO2 SLP187 4/007 T10831161 11044 21089 55001

EXPIRED METARs :
  • 180453Z 36005KT 10SM BKN150 M07/M16 A3007 RMK AO2 SLP185 T10721156 410281106
  • 180353Z 32003KT 10SM OVC150 M07/M16 A3005 RMK AO2 SLP181 T10721161

TAF KBGR
Valid from the 18 at 06:00 until the 19 at 06:00 UTC


180538Z 1806/1906 36003KT P6SM BKN100
FM181600 04005KT 5SM -SN BKN040
FM181900 04005KT 2SM -SN OVC030
FM182100 01006KT P6SM OVC015
FM190000 35006KT P6SM BKN090
KZBW FIR / North America



MET'MAP, your aeronautical weather chart ! - Copyright ORBIFLY December 2007 - Disclaimer

ORBIFLY MET'MAP TEAM :

Programming & Development : Alexandra Zaïnal
Concept & Development : Baudouin d'Aumeries
Co-Development & Prog : Marc-Olivier Méhu
Technical & hardware support : Manuel Goepfert

Contact : metmap@orbifly.com




SOURCES & CREDITS :

   NOAA